Time;durP1;ratioP1;P1;durP2;ratioP2;P2;SDS_P1;SDS_P2;PMS_P1;PMS_P2;Temp;Humidity;BMP_temperature;BMP_pressure;BME280_temperature;BME280_humidity;BME280_pressure;Samples;Min_cycle;Max_cycle;Signal;HPM_P1;HPM_P2
2022/02/28 00:00:09;;;;;;;;;;;-0.50;63.40;;;;;;6155625;23;19916;-76
2022/02/28 00:02:36;;;;;;;;;;;-0.50;63.40;;;;;;6158522;23;19916;-77
2022/02/28 00:05:03;;;;;;;;;;;-0.50;62.80;;;;;;6160191;23;20305;-76
2022/02/28 00:07:30;;;;;;;;;;;-0.60;63.10;;;;;;6163542;23;19900;-78
2022/02/28 00:09:57;;;;;;;;;;;-0.60;62.60;;;;;;6163991;23;19923;-76
2022/02/28 00:12:24;;;;;;;;;;;-0.60;62.40;;;;;;6158306;23;19916;-76
2022/02/28 00:14:50;;;;;;;;;;;-0.60;62.20;;;;;;6160555;23;19917;-77
2022/02/28 00:17:17;;;;;;;;;;;-0.60;62.40;;;;;;6154591;23;19916;-77
2022/02/28 00:19:44;;;;;;;;;;;-0.60;61.70;;;;;;6159836;23;19967;-77
2022/02/28 00:22:10;;;;;;;;;;;-0.60;61.40;;;;;;6153214;23;19942;-75
2022/02/28 00:24:37;;;;;;;;;;;-0.70;61.20;;;;;;6157743;23;19923;-78
2022/02/28 00:27:04;;;;;;;;;;;-0.70;61.90;;;;;;6159995;23;19924;-79
2022/02/28 00:29:32;;;;;;;;;;;-0.80;62.30;;;;;;6156961;23;19951;-79
2022/02/28 00:31:59;;;;;;;;;;;-0.90;62.50;;;;;;6154284;23;19920;-78
2022/02/28 00:34:25;;;;;;;;;;;-0.90;63.60;;;;;;6164787;23;19976;-79
2022/02/28 00:36:52;;;;;;;;;;;-0.90;63.00;;;;;;6153914;23;19920;-75
2022/02/28 00:39:19;;;;;;;;;;;-0.90;61.80;;;;;;6160506;23;20380;-77
2022/02/28 00:41:46;;;;;;;;;;;-0.80;61.20;;;;;;6160024;23;20334;-76
2022/02/28 00:44:12;;;;;;;;;;;-0.80;61.20;;;;;;6161743;23;19916;-75
2022/02/28 00:46:40;;;;;;;;;;;-0.80;62.70;;;;;;6155902;23;19921;-80
2022/02/28 00:49:07;;;;;;;;;;;-0.80;63.30;;;;;;6155213;23;19916;-75
2022/02/28 00:51:34;;;;;;;;;;;-0.80;64.40;;;;;;6159711;23;20330;-77
2022/02/28 00:54:01;;;;;;;;;;;-0.90;64.30;;;;;;6157457;23;20305;-76
2022/02/28 00:56:28;;;;;;;;;;;-0.90;66.00;;;;;;6157890;23;19916;-77
2022/02/28 00:58:54;;;;;;;;;;;-0.90;65.70;;;;;;6160838;23;19944;-76
2022/02/28 01:01:21;;;;;;;;;;;-0.90;64.60;;;;;;6157849;23;19920;-77
2022/02/28 01:03:48;;;;;;;;;;;-0.90;64.10;;;;;;6154254;23;20387;-78
2022/02/28 01:06:15;;;;;;;;;;;-0.90;63.10;;;;;;6154943;23;19916;-76
2022/02/28 01:08:44;;;;;;;;;;;-0.90;62.80;;;;;;6157475;23;19920;-78
2022/02/28 01:11:10;;;;;;;;;;;-1.00;62.30;;;;;;6158677;23;20298;-78
2022/02/28 01:13:37;;;;;;;;;;;-0.90;61.70;;;;;;6154755;23;19916;-78
2022/02/28 01:16:04;;;;;;;;;;;-0.80;61.90;;;;;;6155704;23;19916;-78
2022/02/28 01:18:31;;;;;;;;;;;-0.80;61.70;;;;;;6156737;23;20330;-78
2022/02/28 01:20:58;;;;;;;;;;;-0.80;59.90;;;;;;6156602;23;19916;-77
2022/02/28 01:23:25;;;;;;;;;;;-0.50;57.10;;;;;;6158377;23;20360;-76
2022/02/28 01:25:51;;;;;;;;;;;-0.20;56.40;;;;;;6161117;23;19940;-77
2022/02/28 01:28:18;;;;;;;;;;;-0.20;56.60;;;;;;6166146;23;19940;-76
2022/02/28 01:30:45;;;;;;;;;;;-0.30;57.20;;;;;;6154889;23;20297;-75
2022/02/28 01:33:12;;;;;;;;;;;-0.40;57.80;;;;;;6156279;23;19920;-75
2022/02/28 01:35:38;;;;;;;;;;;-0.50;58.30;;;;;;6157611;23;19948;-78
2022/02/28 01:38:06;;;;;;;;;;;-0.70;59.40;;;;;;6155096;23;19967;-75
2022/02/28 01:40:32;;;;;;;;;;;-0.80;60.00;;;;;;6156430;23;19917;-75
2022/02/28 01:42:59;;;;;;;;;;;-0.90;59.90;;;;;;6181327;23;19917;-75
2022/02/28 01:45:26;;;;;;;;;;;-0.90;59.80;;;;;;6155862;23;19924;-75
2022/02/28 01:47:57;;;;;;;;;;;-0.90;59.20;;;;;;6157975;23;19939;-76
2022/02/28 01:50:26;;;;;;;;;;;-0.90;59.60;;;;;;6159565;23;19920;-77
2022/02/28 01:52:53;;;;;;;;;;;-0.90;58.90;;;;;;6155306;23;20102;-75
2022/02/28 01:55:20;;;;;;;;;;;-0.80;58.20;;;;;;6158657;23;20334;-77
2022/02/28 01:57:48;;;;;;;;;;;-0.70;57.00;;;;;;6154410;23;19920;-77
2022/02/28 02:00:19;;;;;;;;;;;-0.60;55.60;;;;;;6156343;23;19921;-77
2022/02/28 02:02:46;;;;;;;;;;;-0.30;54.40;;;;;;6156074;23;19917;-75
2022/02/28 02:05:13;;;;;;;;;;;-0.10;53.60;;;;;;6154460;23;19920;-75
2022/02/28 02:07:40;;;;;;;;;;;0.10;52.40;;;;;;6159698;23;19963;-76
2022/02/28 02:10:08;;;;;;;;;;;0.20;52.40;;;;;;6157269;23;19940;-78
2022/02/28 02:12:35;;;;;;;;;;;0.30;53.10;;;;;;6156790;23;20290;-77
2022/02/28 02:15:05;;;;;;;;;;;0.20;53.30;;;;;;6155338;23;19924;-75
2022/02/28 02:17:32;;;;;;;;;;;0.20;52.90;;;;;;6180439;23;19916;-78
2022/02/28 02:20:02;;;;;;;;;;;0.20;52.50;;;;;;6155334;23;19917;-75
2022/02/28 02:22:29;;;;;;;;;;;0.40;51.70;;;;;;6160023;23;19920;-76
2022/02/28 02:24:55;;;;;;;;;;;0.50;51.60;;;;;;6156496;23;19916;-76
2022/02/28 02:27:22;;;;;;;;;;;0.50;51.50;;;;;;6156637;23;19920;-78
2022/02/28 02:29:49;;;;;;;;;;;0.50;50.50;;;;;;6154996;23;19916;-78
2022/02/28 02:32:17;;;;;;;;;;;0.60;48.70;;;;;;6157722;23;19917;-75
2022/02/28 02:34:44;;;;;;;;;;;1.00;47.80;;;;;;6154980;23;19921;-76
2022/02/28 02:37:12;;;;;;;;;;;1.30;46.80;;;;;;6155354;23;19917;-77
2022/02/28 02:39:42;;;;;;;;;;;1.50;47.70;;;;;;6157128;23;19944;-76
2022/02/28 02:42:12;;;;;;;;;;;1.70;46.80;;;;;;6156296;23;19921;-77
2022/02/28 02:44:39;;;;;;;;;;;2.00;45.90;;;;;;6160359;23;19975;-77
2022/02/28 02:47:06;;;;;;;;;;;2.10;44.10;;;;;;6157075;23;19940;-78
2022/02/28 02:49:33;;;;;;;;;;;2.40;43.10;;;;;;6157635;23;20257;-75
2022/02/28 02:52:00;;;;;;;;;;;2.50;42.80;;;;;;6157969;23;19940;-76
2022/02/28 02:54:26;;;;;;;;;;;2.60;42.70;;;;;;6155722;23;20250;-78
2022/02/28 02:56:53;;;;;;;;;;;2.70;42.20;;;;;;6159442;23;19916;-77
2022/02/28 02:59:20;;;;;;;;;;;2.70;42.20;;;;;;6154239;23;19916;-78
2022/02/28 03:01:47;;;;;;;;;;;2.80;42.30;;;;;;6158136;23;19941;-78
2022/02/28 03:04:14;;;;;;;;;;;2.90;41.20;;;;;;6156883;23;20035;-78
2022/02/28 03:06:40;;;;;;;;;;;3.00;40.80;;;;;;6156797;23;19917;-75
2022/02/28 03:09:11;;;;;;;;;;;3.10;40.70;;;;;;6153553;23;20013;-77
2022/02/28 03:11:38;;;;;;;;;;;3.30;40.20;;;;;;6157669;23;19921;-75
2022/02/28 03:14:05;;;;;;;;;;;3.40;40.10;;;;;;6163486;23;19920;-78
2022/02/28 03:16:32;;;;;;;;;;;3.40;39.60;;;;;;6157061;23;19916;-78
2022/02/28 03:18:58;;;;;;;;;;;3.50;39.90;;;;;;6158457;23;19967;-78
2022/02/28 03:21:25;;;;;;;;;;;3.60;39.70;;;;;;6160773;23;19920;-77
2022/02/28 03:23:52;;;;;;;;;;;3.60;39.30;;;;;;6154444;23;20290;-76
2022/02/28 03:26:18;;;;;;;;;;;3.60;39.50;;;;;;6160371;23;19916;-78
2022/02/28 03:28:45;;;;;;;;;;;3.60;39.60;;;;;;6157997;23;19971;-75
2022/02/28 03:31:12;;;;;;;;;;;3.70;38.30;;;;;;6152782;23;20323;-77
2022/02/28 03:33:39;;;;;;;;;;;3.50;39.70;;;;;;6162577;23;19958;-77
2022/02/28 03:36:06;;;;;;;;;;;3.30;40.30;;;;;;6153519;23;19971;-77
2022/02/28 03:38:33;;;;;;;;;;;3.20;40.20;;;;;;6157438;23;20410;-76
2022/02/28 03:41:00;;;;;;;;;;;3.10;40.70;;;;;;6157377;23;19916;-78
2022/02/28 03:43:26;;;;;;;;;;;3.20;39.30;;;;;;6153579;23;19920;-76
2022/02/28 03:45:55;;;;;;;;;;;3.30;39.50;;;;;;6152621;23;19917;-77
2022/02/28 03:48:21;;;;;;;;;;;3.50;38.50;;;;;;6156566;23;20254;-75
2022/02/28 03:50:48;;;;;;;;;;;3.60;37.90;;;;;;6158102;23;19917;-78
2022/02/28 03:53:15;;;;;;;;;;;3.80;37.60;;;;;;6155656;23;19987;-76
2022/02/28 03:55:42;;;;;;;;;;;4.00;37.30;;;;;;6159860;23;19917;-76
2022/02/28 03:58:08;;;;;;;;;;;4.10;37.10;;;;;;6156839;23;19916;-77
2022/02/28 04:00:35;;;;;;;;;;;4.10;36.90;;;;;;6155519;23;19975;-78
2022/02/28 04:03:02;;;;;;;;;;;4.20;36.80;;;;;;6160096;23;19917;-78
2022/02/28 04:05:29;;;;;;;;;;;4.20;36.90;;;;;;6155211;23;19924;-76
2022/02/28 04:07:59;;;;;;;;;;;4.20;36.20;;;;;;6157338;23;19967;-77
2022/02/28 04:10:26;;;;;;;;;;;4.30;36.20;;;;;;6161434;23;20016;-78
2022/02/28 04:12:52;;;;;;;;;;;4.30;36.40;;;;;;6154779;23;19923;-77
2022/02/28 04:18:24;;;;;;;;;;;4.30;36.10;;;;;;6158415;23;19959;-76
2022/02/28 04:20:50;;;;;;;;;;;4.40;35.50;;;;;;6157342;23;19921;-78
2022/02/28 04:23:17;;;;;;;;;;;4.40;35.80;;;;;;6160339;23;19940;-78
2022/02/28 04:25:44;;;;;;;;;;;4.50;34.90;;;;;;6153360;23;19924;-75
2022/02/28 04:28:11;;;;;;;;;;;4.50;35.30;;;;;;6153477;23;19917;-76
2022/02/28 04:30:37;;;;;;;;;;;4.60;35.20;;;;;;6157797;23;19940;-76
2022/02/28 04:33:04;;;;;;;;;;;4.60;34.80;;;;;;6153907;23;19916;-77
2022/02/28 04:35:31;;;;;;;;;;;4.60;35.00;;;;;;6159842;23;19924;-78
2022/02/28 04:37:58;;;;;;;;;;;4.70;34.90;;;;;;6156340;23;19927;-76
2022/02/28 04:40:25;;;;;;;;;;;4.70;35.00;;;;;;6154802;23;19921;-76
2022/02/28 04:45:56;;;;;;;;;;;4.70;34.70;;;;;;6155630;23;19916;-76
2022/02/28 04:48:23;;;;;;;;;;;4.60;35.00;;;;;;6158376;23;19916;-76
2022/02/28 04:50:55;;;;;;;;;;;4.60;34.50;;;;;;6158037;23;19992;-75
2022/02/28 04:53:25;;;;;;;;;;;4.50;35.10;;;;;;6155283;23;19927;-76
2022/02/28 04:56:01;;;;;;;;;;;4.50;34.60;;;;;;6156898;23;19931;-77
2022/02/28 04:58:28;;;;;;;;;;;4.50;34.50;;;;;;6154131;23;19917;-77
2022/02/28 05:00:55;;;;;;;;;;;4.70;34.50;;;;;;6154147;23;19987;-76
2022/02/28 05:03:21;;;;;;;;;;;4.70;34.40;;;;;;6156330;23;20330;-78
2022/02/28 05:05:49;;;;;;;;;;;4.60;34.90;;;;;;6155928;23;19968;-75
2022/02/28 05:08:16;;;;;;;;;;;4.50;34.70;;;;;;6156609;23;19917;-77
2022/02/28 05:10:43;;;;;;;;;;;4.60;34.20;;;;;;6152399;23;19921;-75
2022/02/28 05:13:09;;;;;;;;;;;4.60;34.20;;;;;;6156471;23;20338;-77
2022/02/28 05:15:36;;;;;;;;;;;4.70;34.00;;;;;;6158163;23;20404;-75
2022/02/28 05:18:03;;;;;;;;;;;4.70;33.70;;;;;;6157780;23;19916;-77
2022/02/28 05:20:30;;;;;;;;;;;4.80;33.80;;;;;;6156402;23;19916;-78
2022/02/28 05:22:59;;;;;;;;;;;4.80;33.30;;;;;;6156998;23;20447;-76
2022/02/28 05:25:27;;;;;;;;;;;4.90;33.70;;;;;;6155723;23;19923;-75
2022/02/28 05:30:58;;;;;;;;;;;3.90;37.10;;;;;;6156113;23;19963;-75
2022/02/28 05:33:25;;;;;;;;;;;3.40;37.70;;;;;;6156773;23;19916;-78
2022/02/28 05:35:52;;;;;;;;;;;3.50;36.70;;;;;;6154376;23;19920;-75
2022/02/28 05:38:18;;;;;;;;;;;3.70;36.00;;;;;;6155505;23;19959;-77
2022/02/28 05:40:46;;;;;;;;;;;4.00;35.10;;;;;;6153747;23;19916;-76
2022/02/28 05:43:13;;;;;;;;;;;4.20;34.60;;;;;;6154861;23;19967;-78
2022/02/28 05:45:39;;;;;;;;;;;4.30;34.40;;;;;;6155897;23;19916;-76
2022/02/28 05:51:11;;;;;;;;;;;4.10;36.20;;;;;;6157701;23;20345;-75
2022/02/28 05:53:38;;;;;;;;;;;4.00;35.20;;;;;;6160833;23;19921;-75
2022/02/28 05:56:05;;;;;;;;;;;4.10;34.50;;;;;;6158214;23;19940;-76
2022/02/28 05:58:32;;;;;;;;;;;4.20;34.40;;;;;;6164612;23;20353;-75
2022/02/28 06:00:58;;;;;;;;;;;4.30;34.20;;;;;;6156127;23;19923;-76
2022/02/28 06:03:25;;;;;;;;;;;4.40;35.20;;;;;;6156069;23;19940;-76
2022/02/28 06:05:52;;;;;;;;;;;4.40;35.30;;;;;;6158176;23;19917;-76
2022/02/28 06:08:19;;;;;;;;;;;3.90;37.20;;;;;;6153772;23;19917;-76
2022/02/28 06:10:46;;;;;;;;;;;3.50;38.60;;;;;;6159031;23;19916;-78
2022/02/28 06:13:15;;;;;;;;;;;3.10;39.10;;;;;;6158095;23;19979;-78
2022/02/28 06:15:41;;;;;;;;;;;2.90;38.90;;;;;;6159661;23;19940;-76
2022/02/28 06:18:09;;;;;;;;;;;2.80;39.70;;;;;;6158410;23;19922;-78
2022/02/28 06:20:40;;;;;;;;;;;3.00;37.10;;;;;;6163988;23;19920;-78
2022/02/28 06:23:14;;;;;;;;;;;3.40;35.80;;;;;;6153452;23;20242;-75
2022/02/28 06:25:42;;;;;;;;;;;3.70;35.90;;;;;;6157446;23;19923;-77
2022/02/28 06:28:09;;;;;;;;;;;3.80;36.40;;;;;;6155228;23;20245;-78
2022/02/28 06:30:40;;;;;;;;;;;3.50;37.20;;;;;;6154397;23;19928;-79
2022/02/28 06:33:07;;;;;;;;;;;3.30;38.20;;;;;;6159894;23;19920;-76
2022/02/28 06:35:34;;;;;;;;;;;3.10;37.60;;;;;;6152742;23;20330;-78
2022/02/28 06:38:01;;;;;;;;;;;3.00;38.50;;;;;;6169509;23;19916;-77
2022/02/28 06:40:27;;;;;;;;;;;2.90;38.80;;;;;;6159263;23;19940;-76
2022/02/28 06:42:54;;;;;;;;;;;2.70;39.40;;;;;;6153746;23;19916;-76
2022/02/28 06:45:24;;;;;;;;;;;2.60;40.00;;;;;;6153924;23;19927;-78
2022/02/28 06:47:51;;;;;;;;;;;2.60;40.00;;;;;;6155323;23;20338;-78
2022/02/28 06:50:18;;;;;;;;;;;2.40;41.10;;;;;;6156806;23;19917;-76
2022/02/28 06:52:45;;;;;;;;;;;2.20;43.70;;;;;;6156294;23;19917;-78
2022/02/28 06:55:12;;;;;;;;;;;2.10;44.30;;;;;;6152996;23;20253;-75
2022/02/28 06:57:38;;;;;;;;;;;1.90;45.70;;;;;;6157756;23;19964;-75
2022/02/28 07:00:05;;;;;;;;;;;1.70;45.90;;;;;;6154513;23;19963;-78
2022/02/28 07:02:32;;;;;;;;;;;1.70;45.70;;;;;;6155671;23;20338;-75
2022/02/28 07:04:59;;;;;;;;;;;1.60;46.30;;;;;;6154844;23;19916;-77
2022/02/28 07:07:26;;;;;;;;;;;1.50;48.20;;;;;;6156630;23;19916;-75
2022/02/28 07:09:53;;;;;;;;;;;1.40;49.00;;;;;;6153970;23;19921;-74
2022/02/28 07:12:20;;;;;;;;;;;1.40;49.10;;;;;;6156265;23;20314;-78
2022/02/28 07:14:47;;;;;;;;;;;1.20;50.10;;;;;;6154923;23;19924;-75
2022/02/28 07:17:13;;;;;;;;;;;1.20;50.70;;;;;;6154720;23;19916;-75
2022/02/28 07:19:41;;;;;;;;;;;1.20;49.30;;;;;;6154554;23;20330;-77
2022/02/28 07:22:07;;;;;;;;;;;1.50;44.30;;;;;;6153613;23;19975;-76
2022/02/28 07:24:34;;;;;;;;;;;1.90;46.60;;;;;;6154586;23;19983;-78
2022/02/28 07:27:01;;;;;;;;;;;2.00;48.80;;;;;;6155923;23;19920;-75
2022/02/28 07:29:29;;;;;;;;;;;2.10;48.40;;;;;;6155821;23;20396;-79
2022/02/28 07:35:00;;;;;;;;;;;2.40;47.90;;;;;;6155438;23;19917;-77
2022/02/28 07:37:27;;;;;;;;;;;2.70;48.20;;;;;;6153482;23;20339;-75
2022/02/28 07:39:53;;;;;;;;;;;2.80;47.80;;;;;;6154079;23;19916;-76
2022/02/28 07:42:20;;;;;;;;;;;3.00;46.30;;;;;;6157260;23;19916;-76
2022/02/28 07:44:47;;;;;;;;;;;3.40;43.80;;;;;;6155742;23;19921;-76
2022/02/28 07:47:14;;;;;;;;;;;3.90;38.30;;;;;;6155792;23;19916;-76
2022/02/28 07:49:42;;;;;;;;;;;4.40;35.80;;;;;;6156231;23;19920;-78
2022/02/28 07:52:09;;;;;;;;;;;4.80;37.70;;;;;;6155663;23;19916;-76
2022/02/28 07:54:36;;;;;;;;;;;5.20;38.70;;;;;;6157837;23;20262;-76
2022/02/28 07:57:03;;;;;;;;;;;5.40;38.90;;;;;;6154174;23;20527;-77
2022/02/28 07:59:29;;;;;;;;;;;5.40;40.90;;;;;;6158138;23;20297;-76
2022/02/28 08:01:58;;;;;;;;;;;5.50;40.30;;;;;;6154170;23;19924;-78
2022/02/28 08:04:26;;;;;;;;;;;5.50;39.90;;;;;;6156642;23;19928;-76
2022/02/28 08:06:52;;;;;;;;;;;5.60;39.90;;;;;;6156400;23;19916;-76
2022/02/28 08:09:21;;;;;;;;;;;5.90;39.60;;;;;;6159734;23;20392;-76
2022/02/28 08:11:48;;;;;;;;;;;6.00;39.50;;;;;;6156604;23;19921;-76
2022/02/28 08:14:15;;;;;;;;;;;6.30;38.50;;;;;;6156077;23;19916;-77
2022/02/28 08:16:42;;;;;;;;;;;6.50;37.30;;;;;;6142179;23;19920;-76
2022/02/28 08:19:09;;;;;;;;;;;6.40;39.50;;;;;;6158664;23;19917;-78
2022/02/28 08:21:35;;;;;;;;;;;6.30;38.30;;;;;;6155647;23;19963;-76
2022/02/28 08:24:02;;;;;;;;;;;6.50;38.60;;;;;;6157435;23;19986;-77
2022/02/28 08:26:29;;;;;;;;;;;6.70;39.20;;;;;;6158020;23;19925;-77
2022/02/28 08:28:56;;;;;;;;;;;7.00;37.40;;;;;;6154593;23;19967;-77
2022/02/28 08:31:23;;;;;;;;;;;7.30;37.60;;;;;;6155251;23;19963;-76
2022/02/28 08:33:49;;;;;;;;;;;7.60;34.70;;;;;;6155571;23;19923;-76
2022/02/28 08:36:16;;;;;;;;;;;7.80;34.60;;;;;;6153414;23;19925;-76
2022/02/28 08:38:43;;;;;;;;;;;8.00;35.90;;;;;;6155410;23;20396;-77
2022/02/28 08:41:10;;;;;;;;;;;8.20;36.20;;;;;;6154756;23;19971;-76
2022/02/28 08:43:37;;;;;;;;;;;8.40;35.80;;;;;;6157768;23;19917;-76
2022/02/28 08:46:04;;;;;;;;;;;8.50;32.50;;;;;;6153134;23;19916;-77
2022/02/28 08:48:31;;;;;;;;;;;8.40;35.50;;;;;;6154503;23;19971;-77
2022/02/28 08:50:58;;;;;;;;;;;8.30;35.20;;;;;;6155580;23;20306;-77
2022/02/28 08:53:25;;;;;;;;;;;8.40;36.30;;;;;;6154987;23;19967;-76
2022/02/28 08:55:52;;;;;;;;;;;8.40;37.80;;;;;;6158116;23;19939;-76
2022/02/28 08:58:20;;;;;;;;;;;8.50;37.70;;;;;;6155466;23;19920;-77
2022/02/28 09:00:46;;;;;;;;;;;8.60;37.60;;;;;;6162409;23;19967;-75
2022/02/28 09:03:14;;;;;;;;;;;8.60;37.10;;;;;;6158035;23;19916;-77
2022/02/28 09:05:40;;;;;;;;;;;8.70;36.10;;;;;;6154979;23;19923;-77
2022/02/28 09:08:07;;;;;;;;;;;8.90;34.90;;;;;;6153381;23;19923;-76
2022/02/28 09:10:34;;;;;;;;;;;9.00;34.30;;;;;;6166200;23;20334;-77
2022/02/28 09:13:06;;;;;;;;;;;9.10;35.10;;;;;;6154372;23;20233;-78
2022/02/28 09:15:35;;;;;;;;;;;9.10;34.00;;;;;;6157939;23;19948;-77
2022/02/28 09:18:02;;;;;;;;;;;9.20;36.40;;;;;;6157327;23;20342;-77
2022/02/28 09:20:31;;;;;;;;;;;9.40;36.20;;;;;;6154991;23;19944;-77
2022/02/28 09:23:00;;;;;;;;;;;9.50;35.60;;;;;;6154943;23;19991;-78
2022/02/28 09:25:27;;;;;;;;;;;9.50;36.20;;;;;;6158833;23;19916;-77
2022/02/28 09:27:54;;;;;;;;;;;9.60;36.10;;;;;;6158109;23;20290;-75
2022/02/28 09:30:21;;;;;;;;;;;9.70;36.50;;;;;;6162487;23;19925;-77
2022/02/28 09:32:48;;;;;;;;;;;9.70;36.60;;;;;;6153980;23;19916;-77
2022/02/28 09:35:15;;;;;;;;;;;9.60;37.60;;;;;;6154337;23;19939;-77
2022/02/28 09:37:42;;;;;;;;;;;9.70;38.40;;;;;;6156895;23;19971;-75
2022/02/28 09:40:09;;;;;;;;;;;9.80;37.50;;;;;;6156513;23;19917;-77
2022/02/28 09:42:36;;;;;;;;;;;9.70;36.80;;;;;;6156261;23;19916;-77
2022/02/28 09:45:03;;;;;;;;;;;9.80;36.40;;;;;;6161776;23;19979;-77
2022/02/28 09:47:31;;;;;;;;;;;9.80;35.50;;;;;;6156153;23;20339;-77
2022/02/28 09:49:58;;;;;;;;;;;9.90;34.80;;;;;;6158740;23;20372;-77
2022/02/28 09:52:24;;;;;;;;;;;10.00;34.80;;;;;;6157547;23;19924;-77
2022/02/28 09:54:51;;;;;;;;;;;10.10;33.70;;;;;;6161838;23;19924;-77
2022/02/28 09:57:21;;;;;;;;;;;10.20;33.60;;;;;;6160296;23;19916;-75
2022/02/28 09:59:48;;;;;;;;;;;10.40;33.20;;;;;;6159560;23;19917;-77
2022/02/28 10:02:14;;;;;;;;;;;10.50;32.00;;;;;;6160570;23;19967;-77
2022/02/28 10:04:42;;;;;;;;;;;10.50;31.90;;;;;;6159198;23;19988;-78
2022/02/28 10:07:17;;;;;;;;;;;10.40;31.90;;;;;;6153694;23;20365;-77
2022/02/28 10:09:43;;;;;;;;;;;10.50;31.90;;;;;;6158719;23;19971;-77
2022/02/28 10:12:10;;;;;;;;;;;10.70;30.70;;;;;;6160347;23;19971;-77
2022/02/28 10:14:37;;;;;;;;;;;10.70;29.70;;;;;;6155590;23;19917;-77
2022/02/28 10:17:05;;;;;;;;;;;10.70;29.90;;;;;;6160660;23;20330;-77
2022/02/28 10:19:35;;;;;;;;;;;10.80;30.70;;;;;;6154409;23;19917;-75
2022/02/28 10:22:03;;;;;;;;;;;10.80;30.20;;;;;;6159358;23;19967;-76
2022/02/28 10:24:34;;;;;;;;;;;10.90;30.30;;;;;;6162112;23;19917;-77
2022/02/28 10:27:01;;;;;;;;;;;11.00;30.90;;;;;;6156679;23;19920;-76
2022/02/28 10:29:29;;;;;;;;;;;11.00;30.80;;;;;;6163737;23;19917;-76
2022/02/28 10:31:57;;;;;;;;;;;11.30;30.90;;;;;;6161483;23;19917;-77
2022/02/28 10:34:25;;;;;;;;;;;11.30;29.80;;;;;;6154483;23;19920;-77
2022/02/28 10:36:57;;;;;;;;;;;11.50;30.50;;;;;;6157943;23;19917;-78
2022/02/28 10:39:25;;;;;;;;;;;11.70;30.00;;;;;;6162561;23;19979;-77
2022/02/28 10:41:53;;;;;;;;;;;11.80;29.00;;;;;;6156873;23;19939;-77
2022/02/28 10:44:20;;;;;;;;;;;11.90;29.20;;;;;;6159402;23;19923;-76
2022/02/28 10:46:48;;;;;;;;;;;12.00;28.50;;;;;;6158385;23;19932;-78
2022/02/28 10:49:16;;;;;;;;;;;12.00;29.30;;;;;;6157788;23;19916;-78
2022/02/28 10:51:45;;;;;;;;;;;12.20;29.00;;;;;;6161558;23;19920;-77
2022/02/28 10:54:14;;;;;;;;;;;12.30;29.10;;;;;;6159597;23;20322;-76
2022/02/28 10:56:44;;;;;;;;;;;12.40;29.00;;;;;;6157511;23;19923;-75
2022/02/28 10:59:10;;;;;;;;;;;12.30;27.90;;;;;;6154996;23;20918;-77
2022/02/28 11:01:39;;;;;;;;;;;12.40;27.90;;;;;;6155196;23;20388;-77
2022/02/28 11:04:09;;;;;;;;;;;12.50;28.30;;;;;;6156586;23;19916;-77
2022/02/28 11:06:37;;;;;;;;;;;12.60;27.30;;;;;;6160423;23;19916;-76
2022/02/28 11:09:04;;;;;;;;;;;12.50;27.50;;;;;;6155728;23;19920;-76
2022/02/28 11:11:31;;;;;;;;;;;12.30;27.40;;;;;;6160722;23;19917;-75
2022/02/28 11:13:59;;;;;;;;;;;12.30;27.70;;;;;;6159735;23;20108;-77
2022/02/28 11:16:26;;;;;;;;;;;12.40;28.70;;;;;;6158404;23;19973;-77
2022/02/28 11:19:02;;;;;;;;;;;12.50;27.40;;;;;;6152987;23;20356;-77
2022/02/28 11:21:29;;;;;;;;;;;12.60;28.10;;;;;;6156967;23;19921;-76
2022/02/28 11:23:57;;;;;;;;;;;12.60;27.50;;;;;;6154862;23;19923;-77
2022/02/28 11:26:23;;;;;;;;;;;12.70;27.90;;;;;;6160455;23;19920;-77
2022/02/28 11:28:50;;;;;;;;;;;12.90;28.80;;;;;;6158120;23;19924;-77
2022/02/28 11:31:17;;;;;;;;;;;13.10;26.90;;;;;;6159393;23;20289;-76
2022/02/28 11:34:13;;;;;;;;;;;13.20;27.20;;;;;;6161490;23;19955;-76
2022/02/28 11:36:46;;;;;;;;;;;13.30;27.00;;;;;;6152769;23;20408;-78
2022/02/28 11:39:13;;;;;;;;;;;13.20;27.50;;;;;;6157858;23;19926;-77
2022/02/28 11:41:40;;;;;;;;;;;13.20;26.10;;;;;;6160367;23;19917;-77
2022/02/28 11:44:08;;;;;;;;;;;13.30;26.50;;;;;;6159468;23;19917;-76
2022/02/28 11:46:41;;;;;;;;;;;13.50;26.50;;;;;;6157356;23;19925;-78
2022/02/28 11:49:19;;;;;;;;;;;13.80;27.50;;;;;;6157360;23;20242;-77
2022/02/28 11:51:48;;;;;;;;;;;13.90;26.00;;;;;;6155825;23;19943;-78
2022/02/28 11:54:15;;;;;;;;;;;13.80;25.10;;;;;;6158320;23;19916;-77
2022/02/28 11:56:46;;;;;;;;;;;13.80;25.50;;;;;;6155984;23;19917;-77
2022/02/28 11:59:12;;;;;;;;;;;13.60;25.10;;;;;;6152801;23;19921;-77
2022/02/28 12:01:48;;;;;;;;;;;13.60;25.70;;;;;;6162369;23;19971;-75
2022/02/28 12:04:20;;;;;;;;;;;13.60;25.30;;;;;;6156693;23;19916;-78
2022/02/28 12:06:48;;;;;;;;;;;13.70;26.30;;;;;;6177866;23;19916;-76
2022/02/28 12:09:30;;;;;;;;;;;13.80;25.50;;;;;;6155731;23;19920;-77
2022/02/28 12:12:15;;;;;;;;;;;14.00;25.50;;;;;;6183597;23;19917;-76
2022/02/28 12:14:54;;;;;;;;;;;14.20;25.40;;;;;;6155224;23;19967;-76
2022/02/28 12:17:31;;;;;;;;;;;14.30;24.80;;;;;;6157502;23;19920;-76
2022/02/28 12:20:12;;;;;;;;;;;14.50;25.00;;;;;;6158349;23;19920;-75
2022/02/28 12:22:54;;;;;;;;;;;14.40;24.50;;;;;;6164196;23;19916;-76
2022/02/28 12:25:40;;;;;;;;;;;14.40;24.50;;;;;;6163345;23;19927;-78
2022/02/28 12:28:26;;;;;;;;;;;14.30;24.00;;;;;;6182461;23;19939;-78
2022/02/28 12:31:01;;;;;;;;;;;14.50;24.90;;;;;;6179206;23;19992;-76
2022/02/28 12:33:38;;;;;;;;;;;14.50;24.30;;;;;;6160119;23;19916;-78
2022/02/28 12:36:11;;;;;;;;;;;14.50;24.70;;;;;;6160836;23;19927;-77
2022/02/28 12:38:42;;;;;;;;;;;14.30;23.80;;;;;;6161544;23;20242;-77
2022/02/28 12:41:36;;;;;;;;;;;14.40;23.90;;;;;;6163148;23;19916;-76
2022/02/28 12:44:07;;;;;;;;;;;14.40;24.20;;;;;;6160734;23;19917;-77
2022/02/28 12:46:39;;;;;;;;;;;14.70;24.70;;;;;;6161939;23;19920;-76
2022/02/28 12:49:06;;;;;;;;;;;14.70;24.40;;;;;;6159255;23;19967;-78
2022/02/28 12:51:34;;;;;;;;;;;15.10;24.30;;;;;;6166338;23;19920;-78
2022/02/28 12:54:08;;;;;;;;;;;15.20;23.80;;;;;;6158038;23;19916;-78
2022/02/28 12:56:44;;;;;;;;;;;15.20;23.50;;;;;;6156073;23;20253;-76
2022/02/28 12:59:11;;;;;;;;;;;15.30;23.70;;;;;;6158998;23;19917;-79
2022/02/28 13:01:39;;;;;;;;;;;15.30;23.80;;;;;;6158384;23;19964;-77
2022/02/28 13:04:07;;;;;;;;;;;15.10;23.20;;;;;;6158659;23;19967;-77
2022/02/28 13:06:35;;;;;;;;;;;15.30;23.80;;;;;;6155153;23;20250;-77
2022/02/28 13:09:22;;;;;;;;;;;15.60;24.10;;;;;;6157589;23;19921;-78
2022/02/28 13:11:53;;;;;;;;;;;15.90;24.10;;;;;;6151360;23;19917;-77
2022/02/28 13:14:21;;;;;;;;;;;16.10;23.40;;;;;;6163096;23;19923;-77
2022/02/28 13:16:50;;;;;;;;;;;16.30;23.10;;;;;;6163646;23;19916;-77
2022/02/28 13:19:18;;;;;;;;;;;15.90;22.30;;;;;;6163048;23;19923;-77
2022/02/28 13:21:48;;;;;;;;;;;15.60;22.80;;;;;;6157245;23;19916;-77
2022/02/28 13:24:17;;;;;;;;;;;15.40;22.10;;;;;;6155066;23;20334;-77
2022/02/28 13:26:44;;;;;;;;;;;15.30;22.80;;;;;;6158238;23;19921;-77
2022/02/28 13:29:12;;;;;;;;;;;15.30;23.00;;;;;;6157250;23;19931;-78
2022/02/28 13:31:41;;;;;;;;;;;15.50;23.60;;;;;;6155612;23;19916;-75
2022/02/28 13:34:13;;;;;;;;;;;15.50;24.00;;;;;;6158214;23;19917;-78
2022/02/28 13:36:46;;;;;;;;;;;15.90;24.10;;;;;;6161484;23;19920;-75
2022/02/28 13:39:33;;;;;;;;;;;16.10;22.90;;;;;;6155569;23;19967;-77
2022/02/28 13:42:10;;;;;;;;;;;16.00;23.20;;;;;;6157400;23;19989;-78
2022/02/28 13:44:41;;;;;;;;;;;15.80;22.50;;;;;;6159180;23;19917;-77
2022/02/28 13:47:16;;;;;;;;;;;15.60;23.20;;;;;;6181651;23;19939;-77
2022/02/28 13:49:44;;;;;;;;;;;15.70;23.10;;;;;;6161409;23;19923;-78
2022/02/28 13:52:12;;;;;;;;;;;15.80;23.00;;;;;;6160854;23;19924;-75
2022/02/28 13:54:57;;;;;;;;;;;16.00;23.20;;;;;;6154456;23;19920;-77
2022/02/28 13:57:24;;;;;;;;;;;15.90;22.50;;;;;;6157158;23;19971;-77
2022/02/28 14:00:12;;;;;;;;;;;15.90;22.90;;;;;;6157894;23;19923;-78
2022/02/28 14:02:51;;;;;;;;;;;15.90;22.90;;;;;;6153638;23;20475;-77
2022/02/28 14:05:18;;;;;;;;;;;16.00;23.30;;;;;;6153751;23;20279;-78
2022/02/28 14:07:54;;;;;;;;;;;16.10;22.40;;;;;;6159260;23;19921;-76
2022/02/28 14:10:34;;;;;;;;;;;16.30;23.00;;;;;;6157090;23;19917;-77
2022/02/28 14:13:13;;;;;;;;;;;16.60;23.20;;;;;;6157371;23;19920;-76
2022/02/28 14:15:42;;;;;;;;;;;16.90;22.90;;;;;;6153879;23;19916;-75
2022/02/28 14:18:10;;;;;;;;;;;17.20;22.60;;;;;;6160467;23;19967;-76
2022/02/28 14:20:38;;;;;;;;;;;17.10;22.10;;;;;;6155978;23;20250;-75
2022/02/28 14:23:06;;;;;;;;;;;16.90;21.10;;;;;;6160276;23;19923;-77
2022/02/28 14:25:33;;;;;;;;;;;16.70;21.70;;;;;;6160408;23;19916;-75
2022/02/28 14:28:03;;;;;;;;;;;16.60;22.00;;;;;;6161548;23;19920;-76
2022/02/28 14:30:31;;;;;;;;;;;16.30;21.90;;;;;;6157571;23;19920;-77
2022/02/28 14:33:01;;;;;;;;;;;16.00;21.30;;;;;;6153992;23;20408;-76
2022/02/28 14:35:28;;;;;;;;;;;16.00;21.70;;;;;;6156335;23;19917;-75
2022/02/28 14:37:57;;;;;;;;;;;16.00;21.70;;;;;;6159565;23;20020;-76
2022/02/28 14:40:28;;;;;;;;;;;15.90;22.50;;;;;;6153181;23;19916;-77
2022/02/28 14:42:56;;;;;;;;;;;15.80;22.50;;;;;;6153515;23;20338;-76
2022/02/28 14:45:23;;;;;;;;;;;16.00;22.60;;;;;;6154859;23;19920;-76